Terminal Aerodrome Forecast
Issued by NWS Wakefield, VA

Home | Current Version | Previous Version | Text Only | Print | Product List | Glossary On
Versions: 1 2 3 4 5 6 7 8 9 10 11 12 13 14 15 16 17 18 19 20 21 22 23 24 25 26
097
FTUS41 KAKQ 210538
TAFRIC
TAF
KRIC 210538Z 2106/2206 19008KT P6SM SCT015 BKN035
     FM210800 20006KT 4SM BR SCT015 SCT250
      TEMPO 2108/2111 4SM BR BKN015
     FM211100 20006KT 4SM BR BKN010
     FM211500 21010KT P6SM SCT012
     FM211800 21011KT P6SM BKN050=

USA.gov is the U.S. government's official web portal to all federal, state and local government web resources and services.